Time;durP1;ratioP1;P1;durP2;ratioP2;P2;SDS_P1;SDS_P2;PMS_P1;PMS_P2;Temp;Humidity;BMP_temperature;BMP_pressure;BME280_temperature;BME280_humidity;BME280_pressure;Samples;Min_cycle;Max_cycle;Signal;HPM_P1;HPM_P2
2021/11/16 00:01:41;;;;;;;;;20.00;15.00;;;;;-147.17;100.00;50038.91;5016262;28;51341;-60
2021/11/16 00:04:07;;;;;;;;;13.25;11.00;;;;;-147.17;100.00;50009.38;5024862;28;51709;-59
2021/11/16 00:06:34;;;;;;;;;16.50;14.75;;;;;-147.17;100.00;50048.75;5022479;28;50949;-61
2021/11/16 00:09:01;;;;;;;;;16.75;16.00;;;;;-147.17;100.00;50054.66;5015205;28;51120;-60
2021/11/16 00:11:26;;;;;;;;;15.75;14.25;;;;;-147.17;100.00;50025.13;5020463;28;51400;-59
2021/11/16 00:13:52;;;;;;;;;14.00;13.00;;;;;-147.17;100.00;50048.75;5018863;28;51860;-60
2021/11/16 00:16:17;;;;;;;;;10.25;9.50;;;;;-147.17;100.00;50038.91;5016390;28;51057;-59
2021/11/16 00:18:43;;;;;;;;;16.25;14.75;;;;;-147.17;100.00;50046.78;5027272;28;50937;-61
2021/11/16 00:21:11;;;;;;;;;14.25;13.50;;;;;-147.17;100.00;50086.16;5027684;28;52279;-60
2021/11/16 00:23:37;;;;;;;;;13.75;11.00;;;;;-147.17;100.00;50025.13;5021745;28;51981;-59
2021/11/16 00:26:07;;;;;;;;;13.00;12.25;;;;;-147.17;100.00;50017.25;5021116;28;51287;-60
2021/11/16 00:28:32;;;;;;;;;11.25;11.25;;;;;-147.17;100.00;50046.78;5030716;28;51152;-59
2021/11/16 00:30:58;;;;;;;;;15.75;10.75;;;;;-147.17;100.00;50044.81;5024199;28;51107;-59
2021/11/16 00:33:26;;;;;;;;;14.25;11.50;;;;;-147.17;100.00;50042.84;5025171;28;51928;-61
2021/11/16 00:35:53;;;;;;;;;11.25;10.00;;;;;-147.17;100.00;50050.72;5021120;28;51181;-60
2021/11/16 00:38:19;;;;;;;;;9.50;8.50;;;;;-147.17;100.00;50042.84;5030499;28;51184;-61
2021/11/16 00:40:45;;;;;;;;;13.75;12.75;;;;;-147.17;100.00;50017.25;5024880;28;51168;-60
2021/11/16 00:43:11;;;;;;;;;15.00;13.00;;;;;-147.17;100.00;50040.88;5014773;28;51001;-59
2021/11/16 00:45:42;;;;;;;;;17.75;16.50;;;;;-147.17;100.00;50048.75;5022997;28;50877;-60
2021/11/16 00:48:09;;;;;;;;;14.25;13.50;;;;;-147.17;100.00;50011.34;5027999;28;51029;-60
2021/11/16 00:50:39;;;;;;;;;14.00;13.00;;;;;-147.17;100.00;50048.75;5023276;28;50940;-60
2021/11/16 00:53:05;;;;;;;;;15.00;13.50;;;;;-147.17;100.00;49981.81;5015206;28;53084;-60
2021/11/16 00:55:30;;;;;;;;;19.00;14.75;;;;;-147.17;100.00;50011.34;5034965;28;52919;-60
2021/11/16 00:57:56;;;;;;;;;22.50;20.00;;;;;-147.17;100.00;49999.53;5020402;28;50925;-60
2021/11/16 01:00:22;;;;;;;;;18.50;16.25;;;;;-147.17;100.00;50011.34;5030775;28;51342;-60
2021/11/16 01:02:48;;;;;;;;;16.75;14.25;;;;;-147.17;100.00;50021.19;5030661;28;51120;-60
2021/11/16 01:05:14;;;;;;;;;13.00;10.75;;;;;-147.17;100.00;50040.88;5035032;28;50947;-60
2021/11/16 01:07:42;;;;;;;;;13.75;13.00;;;;;-147.17;100.00;50015.28;5047525;28;51180;-60
2021/11/16 01:10:13;;;;;;;;;15.50;12.75;;;;;-147.17;100.00;50005.44;5033605;28;51259;-60
2021/11/16 01:12:39;;;;;;;;;13.25;11.00;;;;;-147.17;100.00;50027.09;5026297;28;51179;-60
2021/11/16 01:15:07;;;;;;;;;13.00;11.25;;;;;-147.17;100.00;50040.88;5026554;28;50916;-61
2021/11/16 01:17:33;;;;;;;;;14.75;13.25;;;;;-147.17;100.00;50033.00;5018219;28;51044;-59
2021/11/16 01:19:58;;;;;;;;;16.00;14.25;;;;;-147.17;100.00;50040.88;5035916;28;51353;-59
2021/11/16 01:22:24;;;;;;;;;14.50;11.25;;;;;-147.17;100.00;50044.81;5034322;28;52063;-59
2021/11/16 01:24:49;;;;;;;;;12.25;12.25;;;;;-147.17;100.00;50027.09;5018072;28;51237;-59
2021/11/16 01:27:18;;;;;;;;;14.75;13.00;;;;;-147.17;100.00;50033.00;5037425;28;50941;-60
2021/11/16 01:29:46;;;;;;;;;16.00;13.00;;;;;-147.17;100.00;50021.19;5043932;28;51236;-60
2021/11/16 01:32:26;;;;;;;;;13.50;13.00;;;;;-147.17;100.00;50017.25;5030688;28;52794;-60
2021/11/16 01:34:52;;;;;;;;;14.50;13.25;;;;;-147.17;100.00;50042.84;5031590;28;51194;-61
2021/11/16 01:37:18;;;;;;;;;17.75;14.25;;;;;-147.17;100.00;49993.63;5026629;28;51083;-60
2021/11/16 01:39:43;;;;;;;;;17.75;14.25;;;;;-147.17;100.00;50017.25;5023910;28;52027;-61
2021/11/16 01:42:08;;;;;;;;;17.25;16.50;;;;;-147.17;100.00;50005.44;5029623;28;51132;-60
2021/11/16 01:44:35;;;;;;;;;16.75;16.00;;;;;-147.17;100.00;50019.22;5033214;28;50937;-58
2021/11/16 01:47:00;;;;;;;;;20.50;14.25;;;;;-147.17;100.00;50033.00;5033553;28;51031;-60
2021/11/16 01:49:26;;;;;;;;;15.50;14.25;;;;;-147.17;100.00;50013.31;5033078;28;51259;-58
2021/11/16 01:51:51;;;;;;;;;14.25;13.00;;;;;-147.17;100.00;50021.19;5014426;28;51796;-59
2021/11/16 01:54:16;;;;;;;;;14.50;13.00;;;;;-147.17;100.00;50015.28;4996779;28;50942;-58
2021/11/16 01:56:45;;;;;;;;;14.50;13.00;;;;;-147.17;100.00;49979.84;5027794;28;51854;-59
2021/11/16 01:59:11;;;;;;;;;18.25;14.50;;;;;-147.17;100.00;49997.56;5031017;28;52739;-58
2021/11/16 02:01:38;;;;;;;;;14.25;12.75;;;;;-147.17;100.00;50003.47;5019464;28;51183;-58
2021/11/16 02:04:05;;;;;;;;;10.00;7.67;;;;;-147.17;100.00;50013.31;5013496;28;50980;-59
2021/11/16 02:06:38;;;;;;;;;14.33;13.67;;;;;-147.17;100.00;50009.38;5015896;28;51320;-60
2021/11/16 02:09:07;;;;;;;;;21.75;13.75;;;;;-147.17;100.00;50031.03;5014617;28;51151;-59
2021/11/16 02:11:33;;;;;;;;;14.25;13.50;;;;;-147.17;100.00;49993.63;5012110;28;53876;-59
2021/11/16 02:14:01;;;;;;;;;15.00;13.50;;;;;-147.17;100.00;50025.13;5025462;28;50989;-59
2021/11/16 02:16:28;;;;;;;;;14.75;12.25;;;;;-147.17;100.00;49995.59;5026396;28;51299;-60
2021/11/16 02:18:54;;;;;;;;;14.00;13.00;;;;;-147.17;100.00;49999.53;5023876;28;51030;-60
2021/11/16 02:21:19;;;;;;;;;16.00;14.75;;;;;-147.17;100.00;49993.63;5012390;28;52665;-58
2021/11/16 02:23:45;;;;;;;;;17.75;14.75;;;;;-147.17;100.00;50007.41;5020371;28;51031;-60
2021/11/16 02:26:12;;;;;;;;;15.00;14.25;;;;;-147.17;100.00;49997.56;5014493;28;51395;-60
2021/11/16 02:28:38;;;;;;;;;17.25;14.50;;;;;-147.17;100.00;49991.66;5024516;28;51362;-60
2021/11/16 02:31:04;;;;;;;;;20.50;17.00;;;;;-147.17;100.00;50009.38;5015592;28;51850;-58
2021/11/16 02:33:30;;;;;;;;;11.75;9.75;;;;;-147.17;100.00;49993.63;5026689;28;51156;-59
2021/11/16 02:35:55;;;;;;;;;15.00;14.00;;;;;-147.17;100.00;50017.25;5016946;28;51202;-60
2021/11/16 02:38:21;;;;;;;;;13.50;13.50;;;;;-147.17;100.00;50017.25;5048657;28;51326;-60
2021/11/16 02:40:47;;;;;;;;;18.75;15.00;;;;;-147.17;100.00;50025.13;5033294;28;51776;-60
2021/11/16 02:43:13;;;;;;;;;14.75;12.00;;;;;-147.17;100.00;49981.81;5033498;28;51119;-59
2021/11/16 02:45:41;;;;;;;;;12.25;11.50;;;;;-147.17;100.00;49991.66;5019595;28;51113;-60
2021/11/16 02:48:12;;;;;;;;;16.50;13.50;;;;;-147.17;100.00;50005.44;5027645;28;51109;-59
2021/11/16 02:50:44;;;;;;;;;13.50;11.50;;;;;-147.17;100.00;50005.44;5019097;28;51801;-59
2021/11/16 02:53:11;;;;;;;;;15.50;13.75;;;;;-147.17;100.00;49985.75;5018620;28;51118;-59
2021/11/16 02:55:37;;;;;;;;;11.25;10.00;;;;;-147.17;100.00;49993.63;5027133;28;51184;-59
2021/11/16 02:58:04;;;;;;;;;15.50;14.25;;;;;-147.17;100.00;50013.31;5024471;28;51088;-59
2021/11/16 03:00:30;;;;;;;;;13.50;9.50;;;;;-147.17;100.00;49977.88;5019890;28;51922;-60
2021/11/16 03:02:55;;;;;;;;;14.00;12.50;;;;;-147.17;100.00;50021.19;5025118;28;51479;-59
2021/11/16 03:05:21;;;;;;;;;16.00;13.00;;;;;-147.17;100.00;50015.28;5015414;28;51133;-59
2021/11/16 03:07:54;;;;;;;;;13.50;11.75;;;;;-147.17;100.00;49995.59;5020032;28;51386;-60
2021/11/16 03:10:29;;;;;;;;;16.00;14.25;;;;;-147.17;100.00;50009.38;5011844;28;51856;-59
2021/11/16 03:12:55;;;;;;;;;11.50;10.00;;;;;-147.17;100.00;49997.56;5004060;28;51031;-59
2021/11/16 03:15:20;;;;;;;;;13.50;11.00;;;;;-147.17;100.00;49993.63;5017241;28;51139;-59
2021/11/16 03:17:47;;;;;;;;;12.75;11.50;;;;;-147.17;100.00;50005.44;5021946;28;51704;-59
2021/11/16 03:20:15;;;;;;;;;13.75;11.25;;;;;-147.17;100.00;50005.44;5030371;28;50992;-58
2021/11/16 03:22:57;;;;;;;;;13.00;12.50;;;;;-147.17;100.00;50011.34;5027298;28;51283;-60
2021/11/16 03:25:27;;;;;;;;;14.00;12.25;;;;;-147.17;100.00;50033.00;5011395;28;50974;-60
2021/11/16 03:28:04;;;;;;;;;12.50;10.75;;;;;-147.17;100.00;50021.19;5030241;28;51180;-60
2021/11/16 03:30:30;;;;;;;;;16.25;11.00;;;;;-147.17;100.00;49987.72;5017827;28;51119;-59
2021/11/16 03:32:56;;;;;;;;;12.50;10.50;;;;;-147.17;100.00;49997.56;5013008;28;51062;-60
2021/11/16 03:35:22;;;;;;;;;13.50;11.00;;;;;-147.17;100.00;50044.81;5024980;28;51328;-60
2021/11/16 03:37:51;;;;;;;;;15.50;13.25;;;;;-147.17;100.00;50031.03;5020469;28;51233;-59
2021/11/16 03:40:17;;;;;;;;;12.25;11.25;;;;;-147.17;100.00;50017.25;5018681;28;51234;-60
2021/11/16 03:42:45;;;;;;;;;13.50;10.25;;;;;-147.17;100.00;50009.38;5019692;28;51202;-60
2021/11/16 03:45:14;;;;;;;;;9.25;5.75;;;;;-147.17;100.00;50015.28;5018945;28;51119;-60
2021/11/16 03:47:40;;;;;;;;;19.50;14.75;;;;;-147.17;100.00;50021.19;5022187;28;51025;-59
2021/11/16 03:50:09;;;;;;;;;9.75;8.50;;;;;-147.17;100.00;50044.81;5017771;28;51888;-59
2021/11/16 03:52:39;;;;;;;;;12.50;12.50;;;;;-147.17;100.00;50005.44;5019928;28;50987;-60
2021/11/16 03:55:05;;;;;;;;;12.00;10.75;;;;;-147.17;100.00;50084.19;5018718;28;51249;-59
2021/11/16 03:57:31;;;;;;;;;11.50;9.00;;;;;-147.17;100.00;50078.28;5020500;28;51220;-60
2021/11/16 03:59:56;;;;;;;;;10.75;9.50;;;;;-147.17;100.00;50072.38;5016676;28;51290;-58
2021/11/16 04:02:21;;;;;;;;;17.25;13.25;;;;;-147.17;100.00;50066.47;5013021;28;51047;-59
2021/11/16 04:04:52;;;;;;;;;7.00;6.25;;;;;-147.17;100.00;50050.72;5012874;28;51097;-59
2021/11/16 04:07:18;;;;;;;;;10.00;8.50;;;;;-147.17;100.00;50033.00;5026322;28;51372;-58
2021/11/16 04:09:43;;;;;;;;;16.00;13.50;;;;;-147.17;100.00;50072.38;5017094;28;50949;-59
2021/11/16 04:12:09;;;;;;;;;14.50;14.00;;;;;-147.17;100.00;50070.41;5012164;28;51127;-59
2021/11/16 04:14:34;;;;;;;;;13.25;10.25;;;;;-147.17;100.00;50066.47;5019807;28;51196;-59
2021/11/16 04:17:00;;;;;;;;;12.75;12.75;;;;;-147.17;100.00;50078.28;5014520;28;50951;-59
2021/11/16 04:19:25;;;;;;;;;15.25;14.00;;;;;-147.17;100.00;50074.34;5024172;28;51026;-60
2021/11/16 04:21:51;;;;;;;;;15.00;12.25;;;;;-147.17;100.00;50050.72;5016355;28;51154;-60
2021/11/16 04:24:16;;;;;;;;;14.00;10.00;;;;;-147.17;100.00;50034.97;5016161;28;51266;-58
2021/11/16 04:26:42;;;;;;;;;13.00;12.00;;;;;-147.17;100.00;50070.41;5020997;28;51029;-59
2021/11/16 04:29:07;;;;;;;;;13.75;13.00;;;;;-147.17;100.00;50064.50;5029393;28;51117;-58
2021/11/16 04:31:33;;;;;;;;;15.25;14.25;;;;;-147.17;100.00;50062.53;5025146;28;51098;-59
2021/11/16 04:34:07;;;;;;;;;16.75;13.50;;;;;-147.17;100.00;50068.44;5022089;28;50839;-60
2021/11/16 04:36:33;;;;;;;;;14.25;14.00;;;;;-147.17;100.00;50048.75;5016038;28;50925;-59
2021/11/16 04:38:59;;;;;;;;;16.25;12.75;;;;;-147.17;100.00;50068.44;5020182;28;51137;-59
2021/11/16 04:41:25;;;;;;;;;16.25;15.50;;;;;-147.17;100.00;50044.81;5027428;28;50973;-60
2021/11/16 04:43:50;;;;;;;;;20.25;16.50;;;;;-147.17;100.00;50029.06;5019779;28;51808;-60
2021/11/16 04:46:19;;;;;;;;;18.50;15.75;;;;;-147.17;100.00;50017.25;5021327;28;50922;-60
2021/11/16 04:48:54;;;;;;;;;12.75;12.00;;;;;-147.17;100.00;50033.00;5015377;28;51233;-60
2021/11/16 05:04:52;;;;;;;;;22.00;20.75;;;;;-147.17;100.00;50048.75;5006864;28;51103;-59
2021/11/16 05:07:20;;;;;;;;;18.25;16.25;;;;;-147.17;100.00;50029.06;5014044;28;51285;-59
2021/11/16 05:09:47;;;;;;;;;18.25;15.25;;;;;-147.17;100.00;50044.81;5017459;28;51858;-59
2021/11/16 05:12:12;;;;;;;;;16.00;14.50;;;;;-147.17;100.00;50029.06;5016707;28;51256;-59
2021/11/16 05:14:38;;;;;;;;;21.50;17.50;;;;;-147.17;100.00;50042.84;5016764;28;51757;-58
2021/11/16 05:17:03;;;;;;;;;19.75;19.00;;;;;-147.17;100.00;50052.69;5015317;28;51221;-59
2021/11/16 05:19:30;;;;;;;;;22.50;20.00;;;;;-147.17;100.00;50086.16;5014416;28;54016;-60
2021/11/16 05:21:56;;;;;;;;;19.50;16.75;;;;;-147.17;100.00;50060.56;5022458;28;51067;-59
2021/11/16 05:24:25;;;;;;;;;24.75;20.00;;;;;-147.17;100.00;50044.81;5023023;28;50957;-59
2021/11/16 05:26:52;;;;;;;;;18.50;15.50;;;;;-147.17;100.00;50031.03;5025893;28;51278;-59
2021/11/16 05:29:17;;;;;;;;;20.25;16.50;;;;;-147.17;100.00;50046.78;5034739;28;51972;-60
2021/11/16 05:31:43;;;;;;;;;22.50;19.50;;;;;-147.17;100.00;50044.81;5027384;28;51226;-60
2021/11/16 05:34:08;;;;;;;;;18.75;16.00;;;;;-147.17;100.00;50034.97;5016939;28;51210;-59
2021/11/16 05:36:34;;;;;;;;;19.25;19.00;;;;;-147.17;100.00;50038.91;5015013;28;51276;-59
2021/11/16 05:38:59;;;;;;;;;20.50;17.25;;;;;-147.17;100.00;50060.56;5014839;28;51555;-59
2021/11/16 05:41:25;;;;;;;;;22.75;19.50;;;;;-147.17;100.00;50044.81;5019921;28;51027;-58
2021/11/16 05:43:51;;;;;;;;;20.75;19.25;;;;;-147.17;100.00;50042.84;5016188;28;51196;-59
2021/11/16 05:46:22;;;;;;;;;16.00;13.75;;;;;-147.17;100.00;50025.13;5014653;28;50976;-59
2021/11/16 05:48:49;;;;;;;;;16.75;15.00;;;;;-147.17;100.00;50058.59;5023592;28;52902;-59
2021/11/16 05:51:15;;;;;;;;;19.00;17.25;;;;;-147.17;100.00;50044.81;5016444;28;51097;-59
2021/11/16 05:53:44;;;;;;;;;15.50;15.00;;;;;-147.17;100.00;50066.47;5029283;28;51215;-59
2021/11/16 05:56:09;;;;;;;;;16.25;15.00;;;;;-147.17;100.00;50052.69;5031860;28;51423;-59
2021/11/16 05:58:38;;;;;;;;;19.00;15.50;;;;;-147.17;100.00;50029.06;5026535;28;51101;-60
2021/11/16 06:01:04;;;;;;;;;18.25;15.00;;;;;-147.17;100.00;50076.31;5029016;28;51271;-60
2021/11/16 06:03:29;;;;;;;;;21.00;17.50;;;;;-147.17;100.00;50054.66;5026260;28;51803;-60
2021/11/16 06:05:55;;;;;;;;;15.50;15.00;;;;;-147.17;100.00;50052.69;5022101;28;51209;-60
2021/11/16 06:08:23;;;;;;;;;21.00;20.00;;;;;-147.17;100.00;50046.78;5026174;28;51188;-59
2021/11/16 06:10:49;;;;;;;;;12.00;10.00;;;;;-147.17;100.00;50064.50;5020103;28;51280;-59
2021/11/16 06:13:14;;;;;;;;;20.00;17.25;;;;;-147.17;100.00;50068.44;5025304;28;51421;-60
2021/11/16 06:15:40;;;;;;;;;16.00;15.00;;;;;-147.17;100.00;50092.03;5014335;28;51425;-60
2021/11/16 06:18:05;;;;;;;;;19.25;16.25;;;;;-147.17;100.00;50068.44;5047832;28;51683;-61
2021/11/16 06:20:32;;;;;;;;;24.75;22.00;;;;;-147.17;100.00;50056.63;5034073;28;51078;-59
2021/11/16 06:22:58;;;;;;;;;16.00;16.00;;;;;-147.17;100.00;50029.06;5033771;28;51154;-61
2021/11/16 06:25:23;;;;;;;;;19.00;17.00;;;;;-147.17;100.00;50044.81;5032571;28;51115;-59
2021/11/16 06:27:48;;;;;;;;;18.00;15.50;;;;;-147.17;100.00;50054.66;5037249;28;52187;-59
2021/11/16 06:30:14;;;;;;;;;19.00;16.00;;;;;-147.17;100.00;50070.41;5014046;28;50995;-59
2021/11/16 06:32:40;;;;;;;;;13.50;11.75;;;;;-147.17;100.00;50076.31;5014356;28;50970;-59
2021/11/16 06:35:05;;;;;;;;;16.50;13.25;;;;;-147.17;100.00;50048.75;5025345;28;51018;-59
2021/11/16 06:37:31;;;;;;;;;19.25;15.00;;;;;-147.17;100.00;50048.75;5033579;28;51755;-59
2021/11/16 06:39:56;;;;;;;;;23.75;20.00;;;;;-147.17;100.00;50054.66;5033411;28;51103;-60
2021/11/16 06:42:22;;;;;;;;;24.75;20.75;;;;;-147.17;100.00;50027.09;5022444;28;51559;-60
2021/11/16 06:44:48;;;;;;;;;20.25;17.75;;;;;-147.17;100.00;50033.00;5011904;28;51089;-60
2021/11/16 06:47:14;;;;;;;;;22.00;19.50;;;;;-147.17;100.00;50029.06;5013509;28;51217;-58
2021/11/16 06:49:41;;;;;;;;;19.25;17.50;;;;;-147.17;100.00;50025.13;5013245;28;51250;-59
2021/11/16 06:52:08;;;;;;;;;21.25;16.75;;;;;-147.17;100.00;50031.03;5012559;28;51151;-60
2021/11/16 06:54:33;;;;;;;;;15.25;14.00;;;;;-147.17;100.00;50019.22;5024725;28;52250;-60
2021/11/16 06:56:59;;;;;;;;;21.75;19.00;;;;;-147.17;100.00;50031.03;5028600;28;53095;-60
2021/11/16 06:59:25;;;;;;;;;18.25;17.75;;;;;-147.17;100.00;50025.13;5027700;28;51085;-59
2021/11/16 07:01:52;;;;;;;;;21.00;19.00;;;;;-147.17;100.00;50019.22;5029428;28;52178;-59
2021/11/16 07:04:18;;;;;;;;;20.25;18.50;;;;;-147.17;100.00;50029.06;5035547;28;51105;-59
2021/11/16 07:06:47;;;;;;;;;22.25;21.00;;;;;-147.17;100.00;50050.72;5030065;28;52959;-58
2021/11/16 07:09:14;;;;;;;;;25.50;22.75;;;;;-147.17;100.00;50013.31;5027822;28;51063;-59
2021/11/16 07:11:44;;;;;;;;;11.25;11.25;;;;;-147.17;100.00;50003.47;5025559;28;51142;-58
2021/11/16 07:14:12;;;;;;;;;17.00;14.75;;;;;-147.17;100.00;50040.88;5028820;28;51120;-59
2021/11/16 07:16:43;;;;;;;;;19.75;17.25;;;;;-147.17;100.00;50019.22;5028047;28;51688;-58
2021/11/16 07:19:11;;;;;;;;;20.00;16.75;;;;;-147.17;100.00;50029.06;5031574;28;51187;-58
2021/11/16 07:21:47;;;;;;;;;16.75;15.25;;;;;-147.17;100.00;50070.41;5030408;28;51125;-59
2021/11/16 07:24:16;;;;;;;;;18.75;16.50;;;;;-147.17;100.00;50015.28;5028394;28;51212;-59
2021/11/16 07:26:42;;;;;;;;;18.25;16.50;;;;;-147.17;100.00;50009.38;5030557;28;53208;-58
2021/11/16 07:29:15;;;;;;;;;17.25;15.25;;;;;-147.17;100.00;50021.19;5019956;28;51574;-59
2021/11/16 07:31:42;;;;;;;;;17.75;16.50;;;;;-147.17;100.00;50034.97;5027212;28;51298;-59
2021/11/16 07:34:18;;;;;;;;;20.00;16.50;;;;;-147.17;100.00;50034.97;5029173;28;51318;-59
2021/11/16 07:36:58;;;;;;;;;26.50;22.50;;;;;-147.17;100.00;50062.53;5017984;28;51685;-59
2021/11/16 07:39:25;;;;;;;;;19.50;16.50;;;;;-147.17;100.00;50033.00;5025400;28;51019;-60
2021/11/16 07:41:52;;;;;;;;;22.00;19.00;;;;;-147.17;100.00;50052.69;5014918;28;50943;-60
2021/11/16 07:44:17;;;;;;;;;22.50;19.75;;;;;-147.17;100.00;50044.81;5032239;28;50876;-59
2021/11/16 07:46:54;;;;;;;;;17.50;15.75;;;;;-147.17;100.00;50040.88;5029586;28;51846;-61
2021/11/16 07:49:22;;;;;;;;;21.00;19.00;;;;;-147.17;100.00;50052.69;5028835;28;51313;-59
2021/11/16 07:51:48;;;;;;;;;17.50;16.25;;;;;-147.17;100.00;50033.00;5028044;28;51115;-59
2021/11/16 07:54:19;;;;;;;;;15.25;14.25;;;;;-147.17;100.00;50066.47;5026626;28;51202;-59
2021/11/16 07:56:45;;;;;;;;;23.50;18.75;;;;;-147.17;100.00;50078.28;5025806;28;53034;-60
2021/11/16 07:59:11;;;;;;;;;20.50;17.50;;;;;-147.17;100.00;50080.25;5024805;28;51238;-59
2021/11/16 08:04:16;;;;;;;;;16.50;15.25;;;;;-147.17;100.00;50060.56;5031005;28;51348;-60
2021/11/16 08:06:51;;;;;;;;;19.00;18.25;;;;;-147.17;100.00;50060.56;5031816;28;51783;-60
2021/11/16 08:10:02;;;;;;;;;13.00;12.25;;;;;-147.17;100.00;50076.31;5022344;28;51172;-59
2021/11/16 08:12:12;;;;;;;;;14.25;13.25;;;;;-147.17;100.00;50070.41;5023163;28;51171;-58
2021/11/16 08:14:37;;;;;;;;;13.50;12.50;;;;;-147.17;100.00;50070.41;5030982;28;51177;-60
2021/11/16 08:17:07;;;;;;;;;17.25;13.25;;;;;-147.17;100.00;50060.56;5015277;28;50889;-60
2021/11/16 08:19:35;;;;;;;;;22.50;19.50;;;;;-147.17;100.00;50082.22;5028933;28;51244;-60
2021/11/16 08:22:11;;;;;;;;;19.00;16.25;;;;;-147.17;100.00;50060.56;5019515;28;51185;-60
2021/11/16 08:24:41;;;;;;;;;21.00;17.75;;;;;-147.17;100.00;50082.22;5028314;28;50950;-60
2021/11/16 08:27:21;;;;;;;;;21.75;17.00;;;;;-147.17;100.00;50088.13;5014682;28;51178;-60
2021/11/16 08:29:51;;;;;;;;;18.75;18.00;;;;;-147.17;100.00;50052.69;5020153;28;51142;-60
2021/11/16 08:32:22;;;;;;;;;19.00;15.75;;;;;-147.17;100.00;50103.84;5033116;28;51179;-60
2021/11/16 08:34:52;;;;;;;;;11.25;11.25;;;;;-147.17;100.00;50123.53;5031922;28;51174;-58
2021/11/16 08:37:19;;;;;;;;;11.25;9.25;;;;;-147.17;100.00;50084.19;5023923;28;51381;-58
2021/11/16 08:39:48;;;;;;;;;22.25;19.25;;;;;-147.17;100.00;50095.97;5014501;28;50976;-59
2021/11/16 08:42:32;;;;;;;;;20.50;16.25;;;;;-147.17;100.00;50084.19;5019170;28;51530;-58
2021/11/16 08:45:03;;;;;;;;;14.50;14.25;;;;;-147.17;100.00;50113.69;5022775;28;50942;-63
2021/11/16 08:47:37;;;;;;;;;21.25;15.00;;;;;-147.17;100.00;50092.03;5024637;28;51198;-60
2021/11/16 08:50:34;;;;;;;;;14.25;14.00;;;;;-147.17;100.00;50119.59;5034668;28;51016;-60
2021/11/16 08:53:04;;;;;;;;;16.25;14.75;;;;;-147.17;100.00;50115.66;5028411;28;51079;-60
2021/11/16 08:55:33;;;;;;;;;14.75;13.25;;;;;-147.17;100.00;50115.66;5023531;28;51193;-59
2021/11/16 08:58:01;;;;;;;;;15.00;12.75;;;;;-147.17;100.00;50115.66;5022503;28;51270;-59
2021/11/16 09:00:52;;;;;;;;;19.00;18.75;;;;;-147.17;100.00;50109.75;5028374;28;50999;-59
2021/11/16 09:03:25;;;;;;;;;14.50;14.50;;;;;-147.17;100.00;50092.03;5029958;28;50959;-59
2021/11/16 09:05:51;;;;;;;;;11.75;10.75;;;;;-147.17;100.00;50099.91;5030257;28;50938;-59
2021/11/16 09:08:26;;;;;;;;;14.25;11.50;;;;;-147.17;100.00;50113.69;5017909;28;52193;-59
2021/11/16 09:10:56;;;;;;;;;15.00;15.00;;;;;-147.17;100.00;50147.16;5014753;28;51206;-60
2021/11/16 09:13:24;;;;;;;;;10.00;10.00;;;;;-147.17;100.00;50101.88;5014878;28;50940;-59
2021/11/16 09:15:56;;;;;;;;;14.00;13.50;;;;;-147.17;100.00;50113.69;5013683;28;50929;-59
2021/11/16 09:18:39;;;;;;;;;13.00;10.50;;;;;-147.17;100.00;50109.75;5028913;28;52015;-59
2021/11/16 09:21:13;;;;;;;;;11.50;11.00;;;;;-147.17;100.00;50139.28;5018765;28;50943;-59
2021/11/16 09:23:50;;;;;;;;;17.00;14.00;;;;;-147.17;100.00;50131.41;5022891;28;50949;-59
2021/11/16 09:26:33;;;;;;;;;14.50;14.00;;;;;-147.17;100.00;50129.44;5031631;28;51437;-59
2021/11/16 09:29:03;;;;;;;;;10.50;10.00;;;;;-147.17;100.00;50127.47;5029081;28;52614;-59
2021/11/16 09:31:35;;;;;;;;;11.75;11.75;;;;;-147.17;100.00;50121.56;5031033;28;51169;-59
2021/11/16 09:34:07;;;;;;;;;14.50;13.00;;;;;-147.17;100.00;50131.41;5017042;28;51178;-59
2021/11/16 09:36:38;;;;;;;;;10.25;9.75;;;;;-147.17;100.00;50133.38;5031356;28;51207;-59
2021/11/16 09:39:18;;;;;;;;;15.75;14.25;;;;;-147.17;100.00;50178.66;5031040;28;51261;-59
2021/11/16 09:41:55;;;;;;;;;12.25;10.50;;;;;-147.17;100.00;50123.53;5022967;28;51145;-59
2021/11/16 09:44:32;;;;;;;;;9.33;8.67;;;;;-147.17;100.00;50105.81;5021736;28;51003;-59
2021/11/16 09:47:20;;;;;;;;;11.50;11.00;;;;;-147.17;100.00;50107.78;5026580;28;51241;-60
2021/11/16 09:49:59;;;;;;;;;12.33;10.67;;;;;-147.17;100.00;50149.13;5013616;28;52110;-59
2021/11/16 09:52:31;;;;;;;;;7.50;7.50;;;;;-147.17;100.00;50129.44;5013254;28;50900;-60
2021/11/16 09:54:57;;;;;;;;;10.00;10.00;;;;;-147.17;100.00;50143.22;5014051;28;50995;-58
2021/11/16 09:57:25;;;;;;;;;11.25;9.75;;;;;-147.17;100.00;50151.09;5013835;28;51114;-60
2021/11/16 09:59:59;;;;;;;;;14.75;14.00;;;;;-147.17;100.00;50123.53;5012601;28;52845;-59
2021/11/16 10:02:28;;;;;;;;;14.75;11.75;;;;;-147.17;100.00;50133.38;5013939;28;50986;-60
2021/11/16 10:05:01;;;;;;;;;10.67;10.00;;;;;-147.17;100.00;50141.25;5014220;28;50988;-60
2021/11/16 10:07:27;;;;;;;;;9.00;9.00;;;;;-147.17;100.00;50158.97;5032134;28;51108;-60
2021/11/16 10:09:52;;;;;;;;;7.67;6.67;;;;;-147.17;100.00;50170.78;5013524;28;52374;-62
2021/11/16 10:12:23;;;;;;;;;9.00;8.00;;;;;-147.17;100.00;50192.44;5013557;28;51043;-61
2021/11/16 10:14:51;;;;;;;;;7.67;7.00;;;;;-147.17;100.00;50162.91;5013938;28;50857;-61
2021/11/16 10:17:17;;;;;;;;;11.33;10.33;;;;;-147.17;100.00;50131.41;5023660;28;51294;-60
2021/11/16 10:19:42;;;;;;;;;16.00;13.00;;;;;-147.17;100.00;50125.50;5012612;28;51020;-60
2021/11/16 10:22:12;;;;;;;;;11.67;10.67;;;;;-147.17;100.00;50170.78;5012855;28;50998;-60
2021/11/16 10:24:40;;;;;;;;;15.25;12.25;;;;;-147.17;100.00;50162.91;5011917;28;51222;-59
2021/11/16 10:27:17;;;;;;;;;13.00;13.00;;;;;-147.17;100.00;50131.41;5016335;28;50973;-60
2021/11/16 10:30:05;;;;;;;;;13.67;11.33;;;;;-147.17;100.00;50135.34;5033393;28;51811;-60
2021/11/16 10:32:30;;;;;;;;;14.00;11.33;;;;;-147.17;100.00;50113.69;5012956;28;51113;-59
2021/11/16 10:35:13;;;;;;;;;14.00;12.33;;;;;-147.17;100.00;50139.28;5013041;28;51048;-60
2021/11/16 10:37:49;;;;;;;;;14.00;13.00;;;;;-147.17;100.00;50155.03;5027704;28;51487;-59
2021/11/16 10:40:16;;;;;;;;;18.25;16.00;;;;;-147.17;100.00;50131.41;5011455;28;53008;-61
2021/11/16 10:42:52;;;;;;;;;14.00;13.67;;;;;-147.17;100.00;50141.25;5012855;28;51229;-59
2021/11/16 10:45:22;;;;;;;;;11.00;10.33;;;;;-147.17;100.00;50111.72;5025409;28;51137;-61
2021/11/16 10:47:48;;;;;;;;;19.00;19.00;;;;;-147.17;100.00;50131.41;5033665;28;51169;-60
2021/11/16 10:50:20;;;;;;;;;16.00;16.00;;;;;-147.17;100.00;50084.19;5020639;28;51962;-59
2021/11/16 10:52:58;;;;;;;;;16.00;15.33;;;;;-147.17;100.00;50170.78;5021626;28;51332;-60
2021/11/16 10:55:33;;;;;;;;;15.00;14.33;;;;;-147.17;100.00;50111.72;5030301;28;51192;-60
2021/11/16 10:58:04;;;;;;;;;15.00;11.50;;;;;-147.17;100.00;50145.19;5030004;28;50896;-60
2021/11/16 11:00:34;;;;;;;;;11.00;10.50;;;;;-147.17;100.00;50162.91;5028223;28;51976;-60
2021/11/16 11:03:23;;;;;;;;;12.33;11.33;;;;;-147.17;100.00;50133.38;5029988;28;51400;-60
2021/11/16 11:05:54;;;;;;;;;13.67;11.00;;;;;-147.17;100.00;50135.34;5050170;28;51073;-60
2021/11/16 11:08:38;;;;;;;;;12.67;12.33;;;;;-147.17;100.00;50149.13;5023088;28;51111;-59
2021/11/16 11:11:08;;;;;;;;;10.75;10.00;;;;;-147.17;100.00;50143.22;5011547;28;51783;-61
2021/11/16 11:13:35;;;;;;;;;21.50;20.00;;;;;-147.17;100.00;50137.31;5011709;28;51184;-60
2021/11/16 11:16:01;;;;;;;;;34.75;27.50;;;;;-147.17;100.00;50097.94;5015998;28;50966;-60
2021/11/16 11:18:36;;;;;;;;;20.75;19.75;;;;;-147.17;100.00;50099.91;5011938;28;50908;-60